createdAt,value
2024-02-01T00:01:47.816Z,837.6308724832214
2024-02-01T00:06:24.371Z,834.3691275167786
2024-02-01T00:09:45.215Z,847.7315436241611
2024-02-01T00:13:05.697Z,846.8389261744967
2024-02-01T00:16:26.374Z,857.3691275167786
2024-02-01T00:19:46.390Z,833.0469798657718
2024-02-01T00:23:06.284Z,861.0402684563759
2024-02-01T00:26:26.769Z,840.51677852349
2024-02-01T00:29:46.798Z,827.8859060402684
2024-02-01T00:34:32.462Z,849.5302013422819
2024-02-01T00:37:52.600Z,856.7046979865772
2024-02-01T00:41:12.974Z,846.4630872483222
2024-02-01T00:44:34.329Z,853.6778523489933
2024-02-01T00:54:29.126Z,835.1543624161073
2024-02-01T00:57:49.392Z,800.6174496644295
2024-02-01T01:02:07.549Z,811.5906040268457
2024-02-01T01:05:28.053Z,802.7919463087248
2024-02-01T01:08:48.283Z,783.1140939597316
2024-02-01T01:12:10.167Z,812.3691275167786
2024-02-01T01:15:30.918Z,798.3959731543624
2024-02-01T01:18:51.003Z,787.3422818791946
2024-02-01T01:22:11.242Z,794.1812080536913
2024-02-01T01:25:31.913Z,824.6644295302013
2024-02-01T01:28:52.200Z,788.3892617449665
2024-02-01T01:32:13.884Z,806.2080536912752
2024-02-01T01:41:02.525Z,775.4295302013422
2024-02-01T01:44:23.126Z,773.751677852349
2024-02-01T01:49:06.044Z,757.2080536912752
2024-02-01T01:52:27.316Z,737.1744966442953
2024-02-01T01:55:47.108Z,714.9127516778524
2024-02-01T01:59:07.190Z,688.3758389261745
2024-02-01T02:02:27.853Z,701.9395973154362
2024-02-01T02:05:47.853Z,655.0335570469799
2024-02-01T02:09:07.907Z,645.7583892617449
2024-02-01T02:12:28.437Z,639.0335570469799
2024-02-01T02:15:48.594Z,651.0604026845638
2024-02-01T02:19:55.867Z,653.1140939597316
2024-02-01T02:23:18.170Z,654.1744966442953
2024-02-01T02:26:39.158Z,669.6040268456376
2024-02-01T02:29:59.189Z,637.4429530201343
2024-02-01T02:33:20.020Z,662.1677852348994
2024-02-01T02:40:24.471Z,633.7919463087248
2024-02-01T02:43:44.840Z,602.489932885906
2024-02-01T02:47:05.430Z,601.8926174496644
2024-02-01T02:50:26.502Z,585.6375838926175
2024-02-01T02:54:00.455Z,562.2214765100671
2024-02-01T02:57:20.618Z,579.6107382550335
2024-02-01T03:00:41.061Z,493.56375838926175
2024-02-01T03:04:01.803Z,487.59060402684565
2024-02-01T03:07:22.755Z,490.48322147651004
2024-02-01T03:10:42.794Z,491.06040268456377
2024-02-01T03:14:03.095Z,471.4697986577181
2024-02-01T03:17:24.161Z,474.22147651006713
2024-02-01T03:25:31.051Z,453.66442953020135
2024-02-01T03:30:04.117Z,448.4161073825503
2024-02-01T03:33:25.054Z,440.03355704697987
2024-02-01T03:36:44.322Z,418.4563758389262
2024-02-01T03:40:04.476Z,427.63758389261744
2024-02-01T03:43:25.061Z,399.1409395973154
2024-02-01T03:46:45.441Z,404.08053691275165
2024-02-01T03:50:06.076Z,389.81208053691273
2024-02-01T03:54:48.071Z,372.0134228187919
2024-02-01T03:58:08.340Z,330.0738255033557
2024-02-01T04:01:29.334Z,333.5771812080537
2024-02-01T04:04:49.675Z,296.18120805369125
2024-02-01T04:08:10.400Z,262.71140939597313
2024-02-01T04:11:31.200Z,272.7718120805369
2024-02-01T04:18:01.831Z,247.63087248322148
2024-02-01T04:21:22.957Z,241.04026845637583
2024-02-01T04:24:44.037Z,208.50335570469798
2024-02-01T04:28:03.913Z,210.95973154362417
2024-02-01T04:33:41.470Z,216.2013422818792
2024-02-01T04:37:01.600Z,200.95302013422818
2024-02-01T04:40:22.449Z,185.63758389261744
2024-02-01T04:43:42.928Z,192.5503355704698
2024-02-01T04:47:03.202Z,186.91275167785236
2024-02-01T04:50:24.287Z,185.5234899328859
2024-02-01T04:53:44.583Z,169.65771812080536
2024-02-01T04:57:04.398Z,186.18791946308724
2024-02-01T05:00:24.659Z,184.15436241610738
2024-02-01T05:03:44.964Z,164.30872483221478
2024-02-01T05:07:05.368Z,179.55704697986576
2024-02-01T05:10:25.935Z,161.6711409395973
2024-02-01T05:13:46.512Z,176.10738255033556
2024-02-01T05:17:06.777Z,186.66442953020135
2024-02-01T05:20:27.973Z,184.1006711409396
2024-02-01T05:23:48.513Z,174.71140939597316
2024-02-01T05:27:08.152Z,153.3221476510067
2024-02-01T05:30:28.803Z,178.5234899328859
2024-02-01T05:33:49.269Z,194.06040268456377
2024-02-01T05:37:09.237Z,163.45637583892616
2024-02-01T05:40:29.700Z,156.78523489932886
2024-02-01T05:43:50.776Z,177.1744966442953
2024-02-01T05:47:11.563Z,163.46979865771812
2024-02-01T05:50:32.215Z,163.43624161073825
2024-02-01T05:53:52.449Z,179.08724832214764
2024-02-01T05:59:40.478Z,166.63758389261744
2024-02-01T06:03:00.818Z,155.45637583892616
2024-02-01T06:08:59.322Z,161.61744966442953
2024-02-01T06:12:20.784Z,176.79194630872485
2024-02-01T06:15:40.677Z,155.13422818791946
2024-02-01T06:21:40.410Z,169.65771812080536
2024-02-01T06:25:01.062Z,197.64429530201343
2024-02-01T06:28:21.542Z,148.93959731543623
2024-02-01T06:31:41.689Z,154.3221476510067
2024-02-01T06:35:01.850Z,179.5234899328859
2024-02-01T06:38:23.581Z,153.3221476510067
2024-02-01T06:41:43.271Z,153.3758389261745
2024-02-01T06:45:04.121Z,257.51677852348996
2024-02-01T06:48:24.867Z,272.5570469798658
2024-02-01T06:51:45.397Z,202.23489932885906
2024-02-01T06:57:09.329Z,187.86577181208054
2024-02-01T07:00:30.069Z,305.48993288590606
2024-02-01T07:03:50.490Z,535.503355704698
2024-02-01T07:07:11.456Z,455.3959731543624
2024-02-01T07:12:23.034Z,177.71812080536913
2024-02-01T07:16:04.086Z,163.05369127516778
2024-02-01T07:19:24.613Z,161.39597315436242
2024-02-01T07:25:24.465Z,158.59060402684563
2024-02-01T07:28:44.427Z,150.18791946308724
2024-02-01T07:35:04.107Z,157.41610738255034
2024-02-01T07:39:39.035Z,177.89261744966444
2024-02-01T07:42:59.293Z,143.8523489932886
2024-02-01T07:47:55.955Z,164.73825503355704
2024-02-01T07:51:22.235Z,214.6510067114094
2024-02-01T07:54:42.750Z,238.00671140939596
2024-02-01T07:58:03.102Z,174.4765100671141
2024-02-01T08:01:44.245Z,193.8523489932886
2024-02-01T08:05:06.471Z,188.1208053691275
2024-02-01T08:08:34.976Z,405.2953020134228
2024-02-01T08:14:16.255Z,285.7315436241611
2024-02-01T08:17:38.303Z,204.43624161073825
2024-02-01T08:21:34.290Z,232.26845637583892
2024-02-01T08:24:54.459Z,265.5704697986577
2024-02-01T08:31:28.443Z,195.83892617449663
2024-02-01T08:34:49.754Z,229.68456375838926
2024-02-01T08:38:10.799Z,277.7718120805369
2024-02-01T08:41:32.436Z,236.65771812080536
2024-02-01T08:44:52.606Z,186.54362416107384
2024-02-01T08:48:13.317Z,189.74496644295303
2024-02-01T08:51:33.845Z,209.25503355704697
2024-02-01T08:54:54.128Z,205.81879194630872
2024-02-01T08:58:15.785Z,190.59731543624162
2024-02-01T09:01:36.760Z,212.61744966442953
2024-02-01T09:04:57.399Z,156.95973154362417
2024-02-01T09:10:44.790Z,180.95302013422818
2024-02-01T09:16:05.452Z,200.53691275167785
2024-02-01T09:19:26.694Z,192.9798657718121
2024-02-01T09:22:47.384Z,208.95302013422818
2024-02-01T09:26:10.272Z,200.21476510067114
2024-02-01T09:29:31.316Z,239.28859060402684
2024-02-01T09:32:51.451Z,197.29530201342283
2024-02-01T09:36:11.342Z,232.63758389261744
2024-02-01T09:39:33.634Z,198.39597315436242
2024-02-01T09:42:54.818Z,185.61744966442953
2024-02-01T09:46:15.562Z,206.94630872483222
2024-02-01T09:51:01.579Z,196.5704697986577
2024-02-01T09:54:22.173Z,185.3288590604027
2024-02-01T09:57:42.872Z,200.24161073825502
2024-02-01T10:01:03.485Z,180.86577181208054
2024-02-01T10:04:24.957Z,245.0201342281879
2024-02-01T10:07:44.827Z,221.18791946308724
2024-02-01T10:11:05.184Z,241.73154362416108
2024-02-01T10:14:26.059Z,213.50335570469798
2024-02-01T10:20:04.806Z,210.05369127516778
2024-02-01T10:23:25.782Z,210.63758389261744
2024-02-01T10:27:27.301Z,222.36912751677852
2024-02-01T10:30:49.887Z,224.93288590604027
2024-02-01T10:34:12.876Z,195.5234899328859
2024-02-01T10:37:36.063Z,208.43624161073825
2024-02-01T10:40:55.605Z,175.74496644295303
2024-02-01T10:44:16.724Z,177.1476510067114
2024-02-01T10:47:37.829Z,176.4496644295302
2024-02-01T10:50:58.157Z,189.75838926174498
2024-02-01T10:54:18.657Z,185.7986577181208
2024-02-01T10:57:38.281Z,185.73154362416108
2024-02-01T11:00:58.872Z,167.60402684563758
2024-02-01T11:04:19.333Z,168.06711409395973
2024-02-01T11:10:44.512Z,178.73154362416108
2024-02-01T11:14:04.667Z,196.11409395973155
2024-02-01T11:17:25.889Z,170.4228187919463
2024-02-01T11:20:45.953Z,168.0738255033557
2024-02-01T11:24:06.015Z,179.46979865771812
2024-02-01T11:27:26.372Z,152.9261744966443
2024-02-01T11:30:46.279Z,203.8724832214765
2024-02-01T11:34:06.383Z,266.16107382550337
2024-02-01T11:37:29.262Z,182.0268456375839
2024-02-01T11:40:50.719Z,203.83221476510067
2024-02-01T11:44:11.116Z,211.4765100671141
2024-02-01T11:48:29.766Z,172.84563758389262
2024-02-01T11:51:50.196Z,177.48993288590603
2024-02-01T11:55:09.926Z,165.8255033557047
2024-02-01T11:58:31.024Z,198.75838926174498
2024-02-01T12:01:51.022Z,204.8791946308725
2024-02-01T12:05:11.257Z,162.86577181208054
2024-02-01T12:08:34.326Z,183.38926174496643
2024-02-01T12:11:55.430Z,152.68456375838926
2024-02-01T12:15:15.628Z,169.66442953020135
2024-02-01T12:18:35.904Z,140.79194630872485
2024-02-01T12:21:56.578Z,161.91946308724832
2024-02-01T12:25:17.475Z,155.64429530201343
2024-02-01T12:29:38.572Z,151.9731543624161
2024-02-01T12:32:59.267Z,155.00671140939596
2024-02-01T12:36:20.221Z,155.15436241610738
2024-02-01T12:39:40.057Z,167.93288590604027
2024-02-01T12:43:00.588Z,177.73825503355704
2024-02-01T12:46:44.570Z,175.18120805369128
2024-02-01T12:50:04.824Z,213.8724832214765
2024-02-01T12:53:25.944Z,225.1208053691275
2024-02-01T12:56:46.232Z,189.75838926174498
2024-02-01T13:00:06.196Z,188.751677852349
2024-02-01T13:06:09.652Z,178.88590604026845
2024-02-01T13:09:31.361Z,181.5771812080537
2024-02-01T13:12:51.770Z,214.4765100671141
2024-02-01T13:16:11.989Z,227.20805369127515
2024-02-01T13:22:45.147Z,217.23489932885906
2024-02-01T13:26:05.760Z,235.38926174496643
2024-02-01T13:29:27.025Z,170.34228187919464
2024-02-01T13:38:48.999Z,178.71812080536913
2024-02-01T13:42:10.030Z,194.06040268456377
2024-02-01T13:45:30.707Z,332.1006711409396
2024-02-01T13:48:51.490Z,276.9597315436242
2024-02-01T13:52:11.985Z,209.44295302013424
2024-02-01T13:57:39.432Z,158.46308724832215
2024-02-01T14:00:59.888Z,158.15436241610738
2024-02-01T14:04:21.063Z,188.2214765100671
2024-02-01T14:07:40.957Z,142.64429530201343
2024-02-01T14:11:01.316Z,155.5704697986577
2024-02-01T14:14:23.332Z,133.59731543624162
2024-02-01T14:17:43.925Z,126.75167785234899
2024-02-01T14:21:04.093Z,116.68456375838926
2024-02-01T14:24:26.118Z,105.20805369127517
2024-02-01T14:27:46.566Z,101.46308724832215
2024-02-01T14:31:06.432Z,132.90604026845637
2024-02-01T14:34:27.556Z,129.46979865771812
2024-02-01T14:37:48.504Z,95.43624161073825
2024-02-01T14:41:08.663Z,135.73825503355704
2024-02-01T14:44:29.323Z,152.3489932885906
2024-02-01T14:47:49.055Z,235.45637583892616
2024-02-01T14:51:08.890Z,204.54362416107384
2024-02-01T14:54:29.495Z,260.0738255033557
2024-02-01T14:57:49.580Z,208.81879194630872
2024-02-01T15:03:23.969Z,192.09395973154363
2024-02-01T15:06:44.521Z,190.7248322147651
2024-02-01T15:10:04.935Z,273.2013422818792
2024-02-01T15:13:26.038Z,251.69127516778522
2024-02-01T15:16:46.123Z,227.44295302013424
2024-02-01T15:21:34.194Z,258.8859060402685
2024-02-01T15:24:54.629Z,203.89261744966444
2024-02-01T15:32:01.990Z,226.86577181208054
2024-02-01T15:35:23.066Z,190.08053691275168
2024-02-01T15:41:23.957Z,253.18791946308724
2024-02-01T15:44:50.567Z,306.97986577181206
2024-02-01T15:48:27.574Z,199.751677852349
2024-02-01T15:51:48.863Z,245.6778523489933
2024-02-01T15:55:08.808Z,255.6979865771812
2024-02-01T15:58:30.039Z,175.94630872483222
2024-02-01T16:01:50.496Z,158.3489932885906
2024-02-01T16:05:10.980Z,167.6778523489933
2024-02-01T16:08:31.668Z,172.99328859060404
2024-02-01T16:11:52.083Z,174.76510067114094
2024-02-01T16:16:31.617Z,173.84563758389262
2024-02-01T16:19:52.201Z,177.40268456375838
2024-02-01T16:23:12.733Z,183.34228187919464
2024-02-01T16:26:33.520Z,165.30872483221478
2024-02-01T16:29:54.163Z,160.13422818791946
2024-02-01T16:33:14.131Z,162.29530201342283
2024-02-01T16:36:34.441Z,174.13422818791946
2024-02-01T16:39:54.974Z,168.46308724832215
2024-02-01T16:43:15.390Z,159.40268456375838
2024-02-01T16:46:36.366Z,170.93288590604027
2024-02-01T16:51:20.790Z,174.05369127516778
2024-02-01T17:03:20.641Z,218.50335570469798
2024-02-01T17:15:30.810Z,289.91946308724835
2024-02-01T17:18:50.510Z,329.4026845637584
2024-02-01T17:22:11.005Z,282.06040268456377
2024-02-01T17:25:31.546Z,259.1476510067114
2024-02-01T17:28:51.632Z,225.61744966442953
2024-02-01T17:43:02.671Z,364.61073825503354
2024-02-01T17:46:24.064Z,297.248322147651
2024-02-01T17:49:44.494Z,392.0
2024-02-01T17:58:40.540Z,369.81208053691273
2024-02-01T18:07:57.964Z,452.06040268456377
2024-02-01T18:11:19.003Z,366.02013422818794
2024-02-01T18:14:39.176Z,367.1677852348993
2024-02-01T18:17:59.632Z,341.4161073825503
2024-02-01T18:21:21.925Z,247.14093959731542
2024-02-01T18:24:42.865Z,310.2281879194631
2024-02-01T18:28:04.659Z,278.38255033557044
2024-02-01T18:31:26.154Z,320.59060402684565
2024-02-01T18:34:47.760Z,298.22147651006713
2024-02-01T18:40:43.895Z,273.56375838926175
2024-02-01T18:44:03.951Z,259.71140939597313
2024-02-01T18:49:27.710Z,229.04697986577182
2024-02-01T18:52:49.132Z,257.28859060402687
2024-02-01T18:56:09.625Z,223.35570469798657
2024-02-01T18:59:30.481Z,222.51006711409397
2024-02-01T19:02:50.785Z,210.1208053691275
2024-02-01T19:06:10.828Z,233.99328859060404
2024-02-01T19:09:31.521Z,224.51006711409397
2024-02-01T19:12:51.775Z,208.60402684563758
2024-02-01T19:16:11.728Z,243.5704697986577
2024-02-01T19:19:32.767Z,257.3489932885906
2024-02-01T19:22:53.202Z,255.0
2024-02-01T19:26:34.545Z,263.7315436241611
2024-02-01T19:29:54.875Z,263.16107382550337
2024-02-01T19:33:16.046Z,278.9597315436242
2024-02-01T19:36:36.930Z,291.4295302013423
2024-02-01T19:43:10.780Z,257.81208053691273
2024-02-01T19:46:31.621Z,339.7986577181208
2024-02-01T19:49:51.629Z,430.248322147651
2024-02-01T19:53:11.685Z,512.0201342281879
2024-02-01T19:56:33.155Z,735.6845637583892
2024-02-01T19:59:53.364Z,642.4563758389262
2024-02-01T20:03:13.806Z,486.73825503355704
2024-02-01T20:06:34.604Z,297.255033557047
2024-02-01T20:10:11.343Z,296.503355704698
2024-02-01T20:16:44.410Z,282.5436241610738
2024-02-01T20:20:07.290Z,296.8523489932886
2024-02-01T20:23:30.766Z,268.8724832214765
2024-02-01T20:26:51.701Z,249.24161073825502
2024-02-01T20:30:12.417Z,280.46308724832215
2024-02-01T20:33:32.654Z,274.4765100671141
2024-02-01T20:36:53.300Z,264.8993288590604
2024-02-01T20:40:13.958Z,284.503355704698
2024-02-01T20:43:34.474Z,277.6711409395973
2024-02-01T20:46:54.401Z,274.46308724832215
2024-02-01T20:50:14.356Z,270.5973154362416
2024-02-01T20:53:34.632Z,246.86577181208054
2024-02-01T20:56:54.716Z,248.36912751677852
2024-02-01T21:00:15.500Z,258.9731543624161
2024-02-01T21:03:36.378Z,233.0201342281879
2024-02-01T21:06:57.298Z,233.18120805369128
2024-02-01T21:10:18.622Z,234.35570469798657
2024-02-01T21:15:06.103Z,255.1208053691275
2024-02-01T21:18:26.872Z,232.08053691275168
2024-02-01T21:21:48.003Z,235.44295302013424
2024-02-01T21:25:07.904Z,246.26845637583892
2024-02-01T21:28:28.746Z,251.8523489932886
2024-02-01T21:32:10.906Z,277.20805369127515
2024-02-01T21:35:33.097Z,255.48322147651007
2024-02-01T21:38:54.033Z,230.74496644295303
2024-02-01T21:42:14.285Z,228.76510067114094
2024-02-01T21:45:35.714Z,231.8523489932886
2024-02-01T21:48:56.103Z,213.8523489932886
2024-02-01T21:52:17.448Z,223.73154362416108
2024-02-01T21:55:38.597Z,225.56375838926175
2024-02-01T21:58:58.821Z,239.8724832214765
2024-02-01T22:02:19.530Z,221.03355704697987
2024-02-01T22:05:40.249Z,211.23489932885906
2024-02-01T22:09:01.025Z,222.81879194630872
2024-02-01T22:12:22.341Z,250.80536912751677
2024-02-01T22:15:43.157Z,241.46979865771812
2024-02-01T22:19:03.454Z,254.0201342281879
2024-02-01T22:22:23.170Z,236.0201342281879
2024-02-01T22:25:43.521Z,229.51006711409397
2024-02-01T22:29:03.068Z,226.48993288590603
2024-02-01T22:32:24.094Z,220.6241610738255
2024-02-01T22:38:38.160Z,226.99328859060404
2024-02-01T22:41:58.439Z,207.29530201342283
2024-02-01T22:45:19.129Z,216.7718120805369
2024-02-01T22:48:40.022Z,215.99328859060404
2024-02-01T22:53:31.544Z,235.5771812080537
2024-02-01T22:56:51.503Z,228.4295302013423
2024-02-01T23:00:11.760Z,206.35570469798657
2024-02-01T23:03:32.805Z,216.26845637583892
2024-02-01T23:06:52.762Z,215.98657718120805
2024-02-01T23:10:12.787Z,211.40939597315437
2024-02-01T23:13:33.347Z,202.91946308724832
2024-02-01T23:16:52.918Z,209.51006711409397
2024-02-01T23:23:11.871Z,181.6979865771812
2024-02-01T23:26:49.477Z,181.69127516778522
2024-02-01T23:30:09.447Z,185.61073825503357
2024-02-01T23:33:30.494Z,168.81879194630872
2024-02-01T23:36:50.600Z,190.58389261744966
2024-02-01T23:40:10.550Z,179.81208053691276
2024-02-01T23:43:30.914Z,186.93288590604027
2024-02-01T23:46:50.954Z,178.2751677852349
2024-02-01T23:50:11.049Z,178.6711409395973
2024-02-01T23:53:32.122Z,174.69127516778522
2024-02-01T23:56:52.154Z,195.8993288590604
